createdAt,value
2022-07-26T00:00:13.384Z,98132.53
2022-07-26T00:02:47.784Z,98144.69
2022-07-26T00:05:16.268Z,98136.16
2022-07-26T00:07:43.811Z,98137.25
2022-07-26T00:10:11.142Z,98154.91
2022-07-26T00:12:38.008Z,98128.72
2022-07-26T00:15:07.185Z,98135.34
2022-07-26T00:17:34.000Z,98138.09
2022-07-26T00:20:00.693Z,98121.56
2022-07-26T00:22:36.435Z,98129.81
2022-07-26T00:25:05.203Z,98142.50
2022-07-26T00:27:32.477Z,98121.56
2022-07-26T00:29:59.486Z,98151.31
2022-07-26T00:32:26.510Z,98122.38
2022-07-26T00:34:53.417Z,98124.28
2022-07-26T00:37:21.000Z,98136.44
2022-07-26T00:39:48.761Z,98121.25
2022-07-26T00:42:15.749Z,98124.56
2022-07-26T00:44:45.206Z,98142.50
2022-07-26T00:47:12.958Z,98145.22
2022-07-26T00:49:39.905Z,98101.06
2022-07-26T00:52:07.861Z,98142.41
2022-07-26T00:54:35.207Z,98139.63
2022-07-26T00:57:02.255Z,98122.50
2022-07-26T00:59:29.244Z,98116.47
2022-07-26T01:01:56.684Z,98129.13
2022-07-26T01:04:23.688Z,98078.63
2022-07-26T01:06:50.803Z,98080.47
2022-07-26T01:09:18.563Z,98107.75
2022-07-26T01:11:45.997Z,98112.75
2022-07-26T01:14:12.812Z,98113.25
2022-07-26T01:16:39.751Z,98110.75
2022-07-26T01:19:06.483Z,98097.50
2022-07-26T01:21:33.874Z,98124.81
2022-07-26T01:24:00.737Z,98093.03
2022-07-26T01:26:27.631Z,98125.00
2022-07-26T01:28:54.491Z,98111.78
2022-07-26T01:31:21.376Z,98100.19
2022-07-26T01:33:48.865Z,98110.88
2022-07-26T01:36:15.799Z,98103.97
2022-07-26T01:38:42.991Z,98078.06
2022-07-26T01:41:10.252Z,98118.28
2022-07-26T01:43:37.440Z,98089.59
2022-07-26T01:46:06.198Z,98116.09
2022-07-26T01:48:33.852Z,98111.72
2022-07-26T01:51:01.033Z,98105.03
2022-07-26T01:53:27.847Z,98111.38
2022-07-26T01:55:54.535Z,98092.84
2022-07-26T01:58:22.083Z,98106.09
2022-07-26T02:00:49.213Z,98102.84
2022-07-26T02:03:15.880Z,98097.81
2022-07-26T02:05:42.637Z,98073.56
2022-07-26T02:08:10.225Z,98077.97
2022-07-26T02:10:56.425Z,98090.69
2022-07-26T02:13:24.030Z,98062.53
2022-07-26T02:15:50.932Z,98072.81
2022-07-26T02:18:17.766Z,98087.44
2022-07-26T02:20:44.518Z,98081.06
2022-07-26T02:23:11.667Z,98084.38
2022-07-26T02:25:38.650Z,98073.06
2022-07-26T02:28:05.764Z,98078.28
2022-07-26T02:30:32.391Z,98082.97
2022-07-26T02:33:00.536Z,98067.22
2022-07-26T02:35:27.431Z,98095.69
2022-07-26T02:37:54.186Z,98087.94
2022-07-26T02:40:21.161Z,98074.97
2022-07-26T02:42:47.799Z,98077.44
2022-07-26T02:45:14.515Z,98095.09
2022-07-26T02:47:52.249Z,98088.53
2022-07-26T02:50:20.974Z,98071.94
2022-07-26T02:52:48.378Z,98093.69
2022-07-26T02:55:16.735Z,98098.88
2022-07-26T02:57:46.149Z,98114.53
2022-07-26T03:00:15.786Z,98090.25
2022-07-26T03:02:42.587Z,98108.81
2022-07-26T03:05:10.078Z,98107.44
2022-07-26T03:07:36.833Z,98099.91
2022-07-26T03:10:04.934Z,98100.97
2022-07-26T03:12:31.779Z,98101.69
2022-07-26T03:14:58.477Z,98096.44
2022-07-26T03:17:25.109Z,98087.84
2022-07-26T03:19:51.962Z,98100.53
2022-07-26T03:22:18.646Z,98090.31
2022-07-26T03:24:45.400Z,98095.63
2022-07-26T03:27:12.049Z,98084.53
2022-07-26T03:29:38.778Z,98088.16
2022-07-26T03:32:05.918Z,98091.16
2022-07-26T03:34:33.003Z,98094.19
2022-07-26T03:36:59.631Z,98099.81
2022-07-26T03:39:26.330Z,98109.03
2022-07-26T03:41:53.060Z,98101.47
2022-07-26T03:44:19.817Z,98101.75
2022-07-26T03:46:46.565Z,98121.91
2022-07-26T03:49:16.544Z,98090.75
2022-07-26T03:51:44.222Z,98103.66
2022-07-26T03:54:11.425Z,98112.25
2022-07-26T03:56:38.620Z,98098.94
2022-07-26T03:59:09.731Z,98128.31
2022-07-26T04:01:41.920Z,98123.59
2022-07-26T04:04:10.610Z,98109.25
2022-07-26T04:06:39.602Z,98121.69
2022-07-26T04:09:08.033Z,98104.44
2022-07-26T04:11:35.418Z,98095.91
2022-07-26T04:14:02.209Z,98135.13
2022-07-26T04:16:28.903Z,98090.13
2022-07-26T04:18:55.870Z,98097.97
2022-07-26T04:21:22.660Z,98106.28
2022-07-26T04:23:51.527Z,98099.97
2022-07-26T04:26:20.027Z,98110.59
2022-07-26T04:28:46.680Z,98091.59
2022-07-26T04:31:13.726Z,98114.50
2022-07-26T04:33:40.528Z,98094.13
2022-07-26T04:36:07.424Z,98094.72
2022-07-26T04:38:34.052Z,98106.06
2022-07-26T04:41:00.725Z,98107.00
2022-07-26T04:43:27.408Z,98097.06
2022-07-26T04:45:54.124Z,98118.09
2022-07-26T04:48:20.902Z,98109.31
2022-07-26T04:50:47.540Z,98074.03
2022-07-26T04:53:14.261Z,98086.16
2022-07-26T04:55:41.842Z,98097.50
2022-07-26T04:58:09.539Z,98101.63
2022-07-26T05:00:56.514Z,98086.25
2022-07-26T05:03:25.533Z,98094.53
2022-07-26T05:05:52.265Z,98104.16
2022-07-26T05:08:19.170Z,98102.78
2022-07-26T05:10:45.953Z,98101.44
2022-07-26T05:13:12.655Z,98092.31
2022-07-26T05:15:39.525Z,98075.78
2022-07-26T05:18:12.688Z,98098.38
2022-07-26T05:20:40.448Z,98090.09
2022-07-26T05:23:07.170Z,98103.31
2022-07-26T05:25:34.111Z,98119.78
2022-07-26T05:28:01.732Z,98117.84
2022-07-26T05:30:28.878Z,98099.28
2022-07-26T05:32:55.657Z,98090.34
2022-07-26T05:35:22.376Z,98130.44
2022-07-26T05:37:49.084Z,98125.06
2022-07-26T05:40:15.922Z,98118.31
2022-07-26T05:42:42.659Z,98097.13
2022-07-26T05:45:10.165Z,98132.03
2022-07-26T05:47:37.093Z,98126.97
2022-07-26T05:50:04.887Z,98118.44
2022-07-26T05:52:31.766Z,98124.06
2022-07-26T05:54:59.115Z,98128.63
2022-07-26T05:57:25.902Z,98112.81
2022-07-26T05:59:52.632Z,98113.28
2022-07-26T06:02:19.474Z,98118.00
2022-07-26T06:04:47.629Z,98121.97
2022-07-26T06:07:14.954Z,98109.56
2022-07-26T06:09:41.644Z,98138.59
2022-07-26T06:12:08.661Z,98119.66
2022-07-26T06:14:36.177Z,98137.00
2022-07-26T06:17:04.499Z,98108.69
2022-07-26T06:19:31.952Z,98112.22
2022-07-26T06:21:58.731Z,98093.47
2022-07-26T06:24:25.457Z,98108.81
2022-07-26T06:26:56.765Z,98110.03
2022-07-26T06:29:24.397Z,98090.94
2022-07-26T06:31:58.981Z,98111.34
2022-07-26T06:34:25.780Z,98092.44
2022-07-26T06:36:52.543Z,98105.81
2022-07-26T06:39:19.256Z,98102.75
2022-07-26T06:41:45.989Z,98095.38
2022-07-26T06:44:12.735Z,98083.66
2022-07-26T06:46:39.392Z,98092.38
2022-07-26T06:49:06.128Z,98114.28
2022-07-26T06:51:34.065Z,98095.59
2022-07-26T06:54:01.125Z,98081.78
2022-07-26T06:56:27.917Z,98105.00
2022-07-26T06:58:56.433Z,98090.44
2022-07-26T07:01:55.694Z,98089.63
2022-07-26T07:04:10.604Z,98080.00
2022-07-26T07:06:37.669Z,98103.91
2022-07-26T07:09:05.020Z,98109.50
2022-07-26T07:11:35.407Z,98088.72
2022-07-26T07:14:03.567Z,98100.25
2022-07-26T07:16:30.435Z,98085.13
2022-07-26T07:18:57.247Z,98081.22
2022-07-26T07:21:24.006Z,98095.53
2022-07-26T07:23:50.656Z,98089.94
2022-07-26T07:26:17.391Z,98091.59
2022-07-26T07:28:44.033Z,98080.69
2022-07-26T07:31:10.820Z,98100.09
2022-07-26T07:33:50.356Z,98094.97
2022-07-26T07:36:20.288Z,98108.72
2022-07-26T07:38:47.490Z,98067.41
2022-07-26T07:41:14.191Z,98081.31
2022-07-26T07:43:41.026Z,98081.94
2022-07-26T07:46:07.694Z,98094.78
2022-07-26T07:48:34.416Z,98089.88
2022-07-26T07:51:01.148Z,98110.38
2022-07-26T07:53:27.864Z,98091.72
2022-07-26T07:55:57.362Z,98090.63
2022-07-26T07:58:24.063Z,98088.84
2022-07-26T08:00:51.917Z,98084.34
2022-07-26T08:03:19.838Z,98101.69
2022-07-26T08:05:49.612Z,98095.69
2022-07-26T08:08:18.150Z,98104.84
2022-07-26T08:10:52.294Z,98080.66
2022-07-26T08:13:21.853Z,98078.75
2022-07-26T08:15:50.344Z,98092.69
2022-07-26T08:18:17.332Z,98070.34
2022-07-26T08:20:46.444Z,98082.78
2022-07-26T08:23:13.668Z,98058.94
2022-07-26T08:25:55.175Z,98062.34
2022-07-26T08:28:38.126Z,98068.94
2022-07-26T08:31:09.493Z,98073.34
2022-07-26T08:33:36.320Z,98068.94
2022-07-26T08:36:07.605Z,98053.75
2022-07-26T08:38:34.300Z,98053.66
2022-07-26T08:41:01.229Z,98054.50
2022-07-26T08:43:28.458Z,98075.72
2022-07-26T08:46:02.348Z,98042.25
2022-07-26T08:48:29.892Z,98076.38
2022-07-26T08:50:57.685Z,98037.81
2022-07-26T08:53:24.541Z,98053.25
2022-07-26T08:56:06.949Z,98067.56
2022-07-26T08:58:37.562Z,98050.56
2022-07-26T09:01:05.492Z,98050.63
2022-07-26T09:03:32.637Z,98032.88
2022-07-26T09:06:17.960Z,98043.06
2022-07-26T09:08:47.418Z,98022.88
2022-07-26T09:11:33.202Z,98056.31
2022-07-26T09:14:02.483Z,98059.00
2022-07-26T09:16:30.223Z,98057.19
2022-07-26T09:19:16.865Z,98051.22
2022-07-26T09:21:43.883Z,98049.19
2022-07-26T09:24:10.858Z,98035.25
2022-07-26T09:26:38.004Z,98036.41
2022-07-26T09:29:10.666Z,98043.78
2022-07-26T09:31:39.072Z,98036.88
2022-07-26T09:34:07.963Z,98020.97
2022-07-26T09:36:51.698Z,98017.34
2022-07-26T09:39:33.485Z,98022.19
2022-07-26T09:42:27.350Z,98041.19
2022-07-26T09:44:59.691Z,98010.66
2022-07-26T09:47:37.339Z,98015.25
2022-07-26T09:50:13.840Z,98025.31
2022-07-26T09:52:41.353Z,98013.03
2022-07-26T09:55:09.314Z,98026.34
2022-07-26T09:57:36.085Z,98015.91
2022-07-26T10:00:06.039Z,98006.63
2022-07-26T10:02:34.744Z,98015.97
2022-07-26T10:05:01.627Z,98005.19
2022-07-26T10:07:28.686Z,97999.50
2022-07-26T10:10:03.678Z,98011.09
2022-07-26T10:12:32.782Z,98009.06
2022-07-26T10:14:59.728Z,97989.75
2022-07-26T10:17:31.677Z,98009.09
2022-07-26T10:20:10.580Z,97994.09
2022-07-26T10:22:46.715Z,97995.88
2022-07-26T10:25:19.993Z,98001.97
2022-07-26T10:27:58.033Z,97982.78
2022-07-26T10:30:33.605Z,97997.47
2022-07-26T10:33:13.628Z,97995.28
2022-07-26T10:35:44.812Z,97969.41
2022-07-26T10:38:27.350Z,97969.34
2022-07-26T10:41:06.644Z,97974.94
2022-07-26T10:43:42.617Z,97962.59
2022-07-26T10:46:18.861Z,97980.34
2022-07-26T10:49:06.655Z,97975.84
2022-07-26T10:51:37.504Z,97976.78
2022-07-26T10:54:10.861Z,97978.78
2022-07-26T10:56:38.333Z,97971.31
2022-07-26T10:59:06.323Z,97966.72
2022-07-26T11:01:43.563Z,97974.66
2022-07-26T11:04:20.944Z,97945.00
2022-07-26T11:06:47.951Z,97959.25
2022-07-26T11:09:14.979Z,97957.91
2022-07-26T11:11:46.417Z,97928.38
2022-07-26T11:14:15.870Z,97953.91
2022-07-26T11:16:48.340Z,97948.38
2022-07-26T11:19:24.915Z,97941.22
2022-07-26T11:22:01.245Z,97926.72
2022-07-26T11:24:28.594Z,97930.81
2022-07-26T11:26:56.389Z,97916.03
2022-07-26T11:29:38.009Z,97936.47
2022-07-26T11:32:21.928Z,97908.69
2022-07-26T11:35:00.115Z,97921.75
2022-07-26T11:37:27.582Z,97911.78
2022-07-26T11:39:54.422Z,97903.28
2022-07-26T11:42:22.232Z,97905.41
2022-07-26T11:44:49.904Z,97901.81
2022-07-26T11:47:24.223Z,97911.63
2022-07-26T11:50:11.551Z,97887.84
2022-07-26T11:52:39.327Z,97884.38
2022-07-26T11:55:07.336Z,97871.16
2022-07-26T11:57:34.020Z,97888.66
2022-07-26T12:00:01.592Z,97894.09
2022-07-26T12:02:30.893Z,97883.84
2022-07-26T12:05:21.462Z,97886.50
2022-07-26T12:07:56.260Z,97886.03
2022-07-26T12:10:23.313Z,97882.63
2022-07-26T12:12:50.028Z,97866.84
2022-07-26T12:15:16.754Z,97876.66
2022-07-26T12:17:59.899Z,97869.06
2022-07-26T12:20:28.120Z,97885.13
2022-07-26T12:23:06.059Z,97881.53
2022-07-26T12:25:32.824Z,97856.25
2022-07-26T12:27:59.697Z,97854.44
2022-07-26T12:30:30.725Z,97853.00
2022-07-26T12:33:02.357Z,97859.13
2022-07-26T12:35:33.689Z,97844.41
2022-07-26T12:38:01.152Z,97825.09
2022-07-26T12:40:40.999Z,97853.97
2022-07-26T12:43:07.700Z,97830.63
2022-07-26T12:45:35.776Z,97844.88
2022-07-26T12:48:07.406Z,97835.63
2022-07-26T12:50:34.155Z,97821.78
2022-07-26T12:53:07.742Z,97836.69
2022-07-26T12:55:35.931Z,97812.25
2022-07-26T12:58:02.773Z,97821.56
2022-07-26T13:00:30.623Z,97832.25
2022-07-26T13:02:57.854Z,97837.78
2022-07-26T13:05:24.532Z,97830.75
2022-07-26T13:07:52.997Z,97806.78
2022-07-26T13:10:32.920Z,97815.22
2022-07-26T13:13:00.572Z,97835.41
2022-07-26T13:15:37.404Z,97804.38
2022-07-26T13:18:07.510Z,97826.56
2022-07-26T13:20:36.126Z,97828.44
2022-07-26T13:23:03.356Z,97799.13
2022-07-26T13:25:38.596Z,97817.34
2022-07-26T13:28:08.480Z,97807.28
2022-07-26T13:30:38.384Z,97816.56
2022-07-26T13:33:05.417Z,97786.09
2022-07-26T13:35:32.089Z,97782.94
2022-07-26T13:37:58.813Z,97784.31
2022-07-26T13:40:30.803Z,97779.44
2022-07-26T13:42:58.090Z,97790.50
2022-07-26T13:45:24.742Z,97783.38
2022-07-26T13:47:57.105Z,97801.03
2022-07-26T13:50:25.714Z,97781.63
2022-07-26T13:52:52.401Z,97786.41
2022-07-26T13:55:20.813Z,97779.31
2022-07-26T13:57:55.870Z,97788.75
2022-07-26T14:00:24.387Z,97779.19
2022-07-26T14:02:51.306Z,97791.22
2022-07-26T14:05:18.899Z,97767.97
2022-07-26T14:07:45.681Z,97778.50
2022-07-26T14:10:12.351Z,97771.00
2022-07-26T14:12:40.826Z,97783.03
2022-07-26T14:15:15.527Z,97776.00
2022-07-26T14:17:47.472Z,97783.47
2022-07-26T14:20:16.925Z,97775.34
2022-07-26T14:22:43.982Z,97776.81
2022-07-26T14:25:10.650Z,97781.72
2022-07-26T14:27:37.455Z,97760.84
2022-07-26T14:30:05.500Z,97770.28
2022-07-26T14:32:32.174Z,97735.97
2022-07-26T14:34:58.881Z,97765.81
2022-07-26T14:37:43.503Z,97747.47
2022-07-26T14:40:16.011Z,97766.97
2022-07-26T14:42:43.380Z,97756.72
2022-07-26T14:45:11.503Z,97742.00
2022-07-26T14:47:38.284Z,97751.13
2022-07-26T14:50:08.307Z,97735.22
2022-07-26T14:52:45.681Z,97754.59
2022-07-26T14:55:14.034Z,97736.47
2022-07-26T14:57:41.374Z,97757.59
2022-07-26T15:00:13.711Z,97748.63
2022-07-26T15:02:41.927Z,97743.41
2022-07-26T15:05:10.137Z,97735.78
2022-07-26T15:07:37.062Z,97749.44
2022-07-26T15:10:05.192Z,97750.56
2022-07-26T15:12:32.179Z,97741.94
2022-07-26T15:14:58.840Z,97718.00
2022-07-26T15:17:25.505Z,97707.16
2022-07-26T15:19:52.222Z,97722.56
2022-07-26T15:22:18.848Z,97706.34
2022-07-26T15:24:45.467Z,97711.13
2022-07-26T15:27:12.132Z,97719.31
2022-07-26T15:29:38.971Z,97734.72
2022-07-26T15:32:06.677Z,97732.84
2022-07-26T15:34:33.689Z,97706.13
2022-07-26T15:37:01.194Z,97702.09
2022-07-26T15:39:28.235Z,97724.41
2022-07-26T15:41:55.135Z,97719.25
2022-07-26T15:44:24.284Z,97717.88
2022-07-26T15:46:53.164Z,97710.75
2022-07-26T15:49:20.278Z,97721.34
2022-07-26T15:51:47.453Z,97711.06
2022-07-26T15:54:16.320Z,97716.41
2022-07-26T15:56:43.733Z,97713.50
2022-07-26T15:59:10.396Z,97693.75
2022-07-26T16:01:37.544Z,97703.75
2022-07-26T16:04:05.795Z,97722.34
2022-07-26T16:06:34.469Z,97727.81
2022-07-26T16:09:19.296Z,97697.84
2022-07-26T16:11:47.539Z,97700.16
2022-07-26T16:14:15.257Z,97694.97
2022-07-26T16:16:42.131Z,97713.19
2022-07-26T16:19:09.271Z,97729.53
2022-07-26T16:21:37.174Z,97697.09
2022-07-26T16:24:07.082Z,97714.81
2022-07-26T16:26:34.642Z,97717.00
2022-07-26T16:29:01.325Z,97716.78
2022-07-26T16:31:28.439Z,97733.56
2022-07-26T16:33:55.217Z,97719.44
2022-07-26T16:36:21.985Z,97715.28
2022-07-26T16:38:48.664Z,97714.06
2022-07-26T16:41:15.315Z,97716.78
2022-07-26T16:43:42.038Z,97720.72
2022-07-26T16:46:09.023Z,97740.69
2022-07-26T16:48:35.690Z,97712.66
2022-07-26T16:51:02.786Z,97715.66
2022-07-26T16:53:29.490Z,97702.63
2022-07-26T16:55:56.141Z,97707.94
2022-07-26T16:58:23.906Z,97696.47
2022-07-26T17:00:50.614Z,97700.59
2022-07-26T17:03:17.560Z,97682.84
2022-07-26T17:05:46.474Z,97717.56
2022-07-26T17:08:13.286Z,97716.28
2022-07-26T17:10:40.056Z,97703.34
2022-07-26T17:13:08.070Z,97703.53
2022-07-26T17:15:34.747Z,97684.88
2022-07-26T17:18:01.552Z,97681.94
2022-07-26T17:20:28.803Z,97725.34
2022-07-26T17:22:56.065Z,97721.91
2022-07-26T17:25:22.770Z,97704.06
2022-07-26T17:27:51.175Z,97717.63
2022-07-26T17:30:18.144Z,97710.56
2022-07-26T17:32:44.961Z,97708.34
2022-07-26T17:35:11.848Z,97716.88
2022-07-26T17:37:38.652Z,97717.47
2022-07-26T17:40:08.392Z,97720.38
2022-07-26T17:42:36.121Z,97723.81
2022-07-26T17:45:03.143Z,97703.06
2022-07-26T17:47:30.680Z,97714.44
2022-07-26T17:52:51.007Z,97742.06
2022-07-26T17:55:19.237Z,97743.34
2022-07-26T17:57:47.802Z,97742.81
2022-07-26T18:00:16.331Z,97744.94
2022-07-26T18:02:43.018Z,97727.94
2022-07-26T18:05:11.343Z,97733.56
2022-07-26T18:07:38.802Z,97740.56
2022-07-26T18:10:06.462Z,97735.84
2022-07-26T18:12:33.255Z,97744.81
2022-07-26T18:14:59.993Z,97732.97
2022-07-26T18:17:26.949Z,97739.94
2022-07-26T18:19:53.579Z,97736.59
2022-07-26T18:22:20.238Z,97736.72
2022-07-26T18:24:46.932Z,97718.25
2022-07-26T18:27:13.631Z,97744.22
2022-07-26T18:29:40.515Z,97776.38
2022-07-26T18:32:07.342Z,97771.94
2022-07-26T18:34:34.026Z,97759.81
2022-07-26T18:37:00.687Z,97756.97
2022-07-26T18:39:32.853Z,97771.66
2022-07-26T18:42:00.667Z,97789.03
2022-07-26T18:44:27.458Z,97768.69
2022-07-26T18:46:56.478Z,97771.47
2022-07-26T18:49:23.741Z,97798.09
2022-07-26T18:51:59.147Z,97789.88
2022-07-26T18:54:31.189Z,97799.25
2022-07-26T18:56:58.359Z,97804.38
2022-07-26T18:59:25.067Z,97807.25
2022-07-26T19:01:51.848Z,97793.41
2022-07-26T19:04:19.507Z,97796.66
2022-07-26T19:06:49.750Z,97775.94
2022-07-26T19:09:16.748Z,97782.81
2022-07-26T19:11:45.817Z,97804.69
2022-07-26T19:14:12.708Z,97805.19
2022-07-26T19:16:39.883Z,97800.91
2022-07-26T19:19:06.573Z,97806.34
2022-07-26T19:21:33.404Z,97787.13
2022-07-26T19:24:00.196Z,97795.66
2022-07-26T19:26:27.613Z,97793.81
2022-07-26T19:28:54.634Z,97808.16
2022-07-26T19:31:22.072Z,97813.00
2022-07-26T19:33:48.839Z,97804.25
2022-07-26T19:36:25.312Z,97815.88
2022-07-26T19:38:53.345Z,97797.25
2022-07-26T19:41:20.167Z,97767.66
2022-07-26T19:43:46.891Z,97791.16
2022-07-26T19:46:13.709Z,97799.25
2022-07-26T19:48:40.678Z,97798.66
2022-07-26T19:51:07.433Z,97786.66
2022-07-26T19:53:34.141Z,97780.66
2022-07-26T19:56:00.793Z,97783.81
2022-07-26T19:58:29.319Z,97796.06
2022-07-26T20:00:56.143Z,97809.31
2022-07-26T20:03:22.827Z,97779.53
2022-07-26T20:05:49.501Z,97798.16
2022-07-26T20:08:16.510Z,97779.94
2022-07-26T20:10:43.173Z,97794.63
2022-07-26T20:13:09.840Z,97804.50
2022-07-26T20:15:36.515Z,97808.06
2022-07-26T20:18:04.207Z,97797.88
2022-07-26T20:20:31.104Z,97788.50
2022-07-26T20:22:57.835Z,97794.69
2022-07-26T20:25:25.350Z,97804.31
2022-07-26T20:27:52.062Z,97789.84
2022-07-26T20:30:18.812Z,97809.34
2022-07-26T20:32:45.534Z,97801.06
2022-07-26T20:35:12.275Z,97805.03
2022-07-26T20:37:40.864Z,97766.00
2022-07-26T20:40:09.205Z,97789.72
2022-07-26T20:42:36.673Z,97811.75
2022-07-26T20:45:11.384Z,97797.94
2022-07-26T20:47:43.134Z,97812.09
2022-07-26T20:50:13.435Z,97803.19
2022-07-26T20:52:40.336Z,97829.16
2022-07-26T20:55:08.477Z,97838.88
2022-07-26T20:57:35.684Z,97844.94
2022-07-26T21:00:04.602Z,97835.81
2022-07-26T21:02:31.482Z,97831.22
2022-07-26T21:04:58.851Z,97865.88
2022-07-26T21:07:58.315Z,97877.03
2022-07-26T21:10:13.564Z,97841.34
2022-07-26T21:12:40.316Z,97864.31
2022-07-26T21:15:07.423Z,97853.53
2022-07-26T21:17:34.790Z,97868.63
2022-07-26T21:20:02.964Z,97866.63
2022-07-26T21:22:29.778Z,97874.47
2022-07-26T21:24:56.810Z,97858.63
2022-07-26T21:27:23.523Z,97857.25
2022-07-26T21:29:50.208Z,97860.78
2022-07-26T21:32:16.916Z,97875.22
2022-07-26T21:34:43.631Z,97867.78
2022-07-26T21:37:10.447Z,97869.69
2022-07-26T21:39:37.093Z,97890.00
2022-07-26T21:42:04.606Z,97872.19
2022-07-26T21:44:31.819Z,97886.31
2022-07-26T21:46:58.578Z,97878.88
2022-07-26T21:49:25.324Z,97830.59
2022-07-26T21:51:52.070Z,97875.94
2022-07-26T21:54:18.769Z,97848.16
2022-07-26T21:56:45.514Z,97865.25
2022-07-26T21:59:12.730Z,97848.25
2022-07-26T22:01:39.770Z,97847.72
2022-07-26T22:04:06.848Z,97869.72
2022-07-26T22:06:33.494Z,97831.25
2022-07-26T22:09:00.132Z,97832.13
2022-07-26T22:11:26.845Z,97842.59
2022-07-26T22:13:53.773Z,97818.41
2022-07-26T22:16:20.855Z,97833.38
2022-07-26T22:18:48.101Z,97859.59
2022-07-26T22:21:14.745Z,97829.81
2022-07-26T22:23:41.484Z,97866.19
2022-07-26T22:26:08.303Z,97843.84
2022-07-26T22:28:35.082Z,97843.09
2022-07-26T22:31:01.787Z,97848.31
2022-07-26T22:33:28.592Z,97841.72
2022-07-26T22:35:55.257Z,97830.50
2022-07-26T22:38:22.001Z,97846.50
2022-07-26T22:40:48.924Z,97844.06
2022-07-26T22:43:15.712Z,97841.84
2022-07-26T22:45:42.781Z,97858.91
2022-07-26T22:48:09.683Z,97850.97
2022-07-26T22:50:37.102Z,97857.00
2022-07-26T22:53:04.100Z,97840.59
2022-07-26T22:55:31.165Z,97856.53
2022-07-26T22:57:58.059Z,97841.75
2022-07-26T23:00:25.197Z,97816.22
2022-07-26T23:02:52.385Z,97838.75
2022-07-26T23:05:19.747Z,97840.75
2022-07-26T23:07:48.043Z,97836.31
2022-07-26T23:10:15.933Z,97844.34
2022-07-26T23:12:42.628Z,97849.03
2022-07-26T23:15:10.381Z,97831.91
2022-07-26T23:17:37.619Z,97849.50
2022-07-26T23:20:06.521Z,97844.66
2022-07-26T23:22:33.656Z,97854.56
2022-07-26T23:25:00.367Z,97844.41
2022-07-26T23:27:27.037Z,97849.94
2022-07-26T23:29:53.790Z,97835.41
2022-07-26T23:32:20.468Z,97851.13
2022-07-26T23:34:47.234Z,97833.88
2022-07-26T23:37:13.950Z,97857.47
2022-07-26T23:39:41.088Z,97857.75
2022-07-26T23:42:07.969Z,97851.75
2022-07-26T23:44:34.701Z,97837.13
2022-07-26T23:47:01.659Z,97850.41
2022-07-26T23:49:28.507Z,97862.28
2022-07-26T23:51:55.458Z,97854.53
2022-07-26T23:54:22.155Z,97856.19
2022-07-26T23:56:48.834Z,97862.00
2022-07-26T23:59:15.917Z,97843.03
